createdAt,value
2016-06-03T00:00:02.138Z,18.58
2016-06-03T00:01:02.140Z,18.63
2016-06-03T00:02:02.159Z,18.62
2016-06-03T00:03:02.146Z,18.67
2016-06-03T00:04:02.148Z,18.88
2016-06-03T00:05:02.150Z,18.94
2016-06-03T00:06:02.137Z,19.22
2016-06-03T00:07:02.125Z,19.16
2016-06-03T00:08:02.128Z,19
2016-06-03T00:09:02.130Z,19.04
2016-06-03T00:10:02.680Z,19.22
2016-06-03T00:11:02.119Z,19.22
2016-06-03T00:12:02.139Z,19.08
2016-06-03T00:13:02.125Z,19
2016-06-03T00:14:02.128Z,19.71
2016-06-03T00:15:02.116Z,19.5
2016-06-03T00:16:02.118Z,19.14
2016-06-03T00:17:02.136Z,18.9
2016-06-03T00:18:02.155Z,19.11
2016-06-03T00:19:02.127Z,19.08
2016-06-03T00:20:02.130Z,18.81
2016-06-03T00:21:02.131Z,18.75
2016-06-03T00:22:02.119Z,18.69
2016-06-03T00:23:02.121Z,18.76
2016-06-03T00:24:02.124Z,18.73
2016-06-03T00:25:02.517Z,18.63
2016-06-03T00:26:01.957Z,19.22
2016-06-03T00:27:02.101Z,19.51
2016-06-03T00:28:02.118Z,19.4
2016-06-03T00:29:02.107Z,19.29
2016-06-03T00:30:02.109Z,19.22
2016-06-03T00:31:04.251Z,19.43
2016-06-03T00:32:02.115Z,19.11
2016-06-03T00:33:02.117Z,18.72
2016-06-03T00:34:02.104Z,18.65
2016-06-03T00:35:02.106Z,18.5
2016-06-03T00:36:02.109Z,18.69
2016-06-03T00:37:02.112Z,18.63
2016-06-03T00:38:02.098Z,19.21
2016-06-03T00:39:02.101Z,18.9
2016-06-03T00:40:02.308Z,18.47
2016-06-03T00:41:02.092Z,18.45
2016-06-03T00:42:02.095Z,18.39
2016-06-03T00:43:02.097Z,19.11
2016-06-03T00:44:02.083Z,18.91
2016-06-03T00:45:02.086Z,19.07
2016-06-03T00:46:02.089Z,19.63
2016-06-03T00:47:02.091Z,19.28
2016-06-03T00:48:02.095Z,18.94
2016-06-03T00:49:02.097Z,18.78
2016-06-03T00:50:02.085Z,18.91
2016-06-03T00:51:02.087Z,18.8
2016-06-03T00:52:02.105Z,18.54
2016-06-03T00:53:02.077Z,18.72
2016-06-03T00:54:02.079Z,19.48
2016-06-03T00:55:02.394Z,20.03
2016-06-03T00:56:02.085Z,20.24
2016-06-03T00:57:02.072Z,19.21
2016-06-03T00:58:02.075Z,19.13
2016-06-03T00:59:02.077Z,18.81
2016-06-03T01:00:02.095Z,18.81
2016-06-03T01:01:01.926Z,18.91
2016-06-03T01:02:02.070Z,18.82
2016-06-03T01:03:02.073Z,18.82
2016-06-03T01:04:02.075Z,19.04
2016-06-03T01:05:02.078Z,19.37
2016-06-03T01:06:02.065Z,19.37
2016-06-03T01:07:02.068Z,19.25
2016-06-03T01:08:02.071Z,19.28
2016-06-03T01:09:02.073Z,19.11
2016-06-03T01:10:02.545Z,19.1
2016-06-03T01:11:02.062Z,19.33
2016-06-03T01:12:02.065Z,19.4
2016-06-03T01:13:02.067Z,19.46
2016-06-03T01:14:02.055Z,19.29
2016-06-03T01:15:02.058Z,19.29
2016-06-03T01:16:02.076Z,19.21
2016-06-03T01:17:02.063Z,19.36
2016-06-03T01:18:02.066Z,19.25
2016-06-03T01:19:02.084Z,19.07
2016-06-03T01:20:02.086Z,18.99
2016-06-03T01:21:02.074Z,18.85
2016-06-03T01:22:02.077Z,18.84
2016-06-03T01:23:02.064Z,18.9
2016-06-03T01:24:02.066Z,19.1
2016-06-03T01:25:02.397Z,18.78
2016-06-03T01:26:02.057Z,18.63
2016-06-03T01:27:02.074Z,18.7
2016-06-03T01:28:02.062Z,18.92
2016-06-03T01:29:02.064Z,18.78
2016-06-03T01:30:02.067Z,18.78
2016-06-03T01:31:02.054Z,18.85
2016-06-03T01:32:02.057Z,19.16
2016-06-03T01:33:02.043Z,19.1
2016-06-03T01:34:02.406Z,18.87
2016-06-03T01:35:02.049Z,18.42
2016-06-03T01:36:02.067Z,18.62
2016-06-03T01:37:01.898Z,18.84
2016-06-03T01:38:02.089Z,18.73
2016-06-03T01:39:02.044Z,18.69
2016-06-03T01:40:02.048Z,18.85
2016-06-03T01:41:02.065Z,18.75
2016-06-03T01:42:02.052Z,18.8
2016-06-03T01:43:02.039Z,18.76
2016-06-03T01:44:02.042Z,18.57
2016-06-03T01:45:02.029Z,18.85
2016-06-03T01:46:02.047Z,19.69
2016-06-03T01:47:02.034Z,19.51
2016-06-03T01:48:02.037Z,18.95
2016-06-03T01:49:02.039Z,18.84
2016-06-03T01:50:02.027Z,18.92
2016-06-03T01:51:02.030Z,18.82
2016-06-03T01:52:02.064Z,18.66
2016-06-03T01:53:02.020Z,18.55
2016-06-03T01:54:02.021Z,18.66
2016-06-03T01:55:02.134Z,18.48
2016-06-03T01:56:02.027Z,18.44
2016-06-03T01:57:02.030Z,18.82
2016-06-03T01:58:02.032Z,19.73
2016-06-03T01:59:02.035Z,19.91
2016-06-03T02:00:02.023Z,19.96
2016-06-03T02:01:02.026Z,20.02
2016-06-03T02:02:02.028Z,19.68
2016-06-03T02:03:02.032Z,19.19
2016-06-03T02:04:02.034Z,18.99
2016-06-03T02:05:02.020Z,18.63
2016-06-03T02:06:02.023Z,18.72
2016-06-03T02:07:02.010Z,18.73
2016-06-03T02:08:02.012Z,18.55
2016-06-03T02:09:02.016Z,18.57
2016-06-03T02:10:02.018Z,18.5
2016-06-03T02:11:02.021Z,18.63
2016-06-03T02:12:02.008Z,18.63
2016-06-03T02:13:02.011Z,18.91
2016-06-03T02:14:02.014Z,18.66
2016-06-03T02:15:02.017Z,18.39
2016-06-03T02:16:02.003Z,18.12
2016-06-03T02:17:02.006Z,17.95
2016-06-03T02:18:01.992Z,18.85
2016-06-03T02:19:01.870Z,19.19
2016-06-03T02:20:01.998Z,19.23
2016-06-03T02:21:01.844Z,19.19
2016-06-03T02:22:02.003Z,18.81
2016-06-03T02:23:01.991Z,18.62
2016-06-03T02:24:01.993Z,18.55
2016-06-03T02:25:01.902Z,18.42
2016-06-03T02:26:01.999Z,18.52
2016-06-03T02:27:02.001Z,18.57
2016-06-03T02:28:01.988Z,18.57
2016-06-03T02:29:01.991Z,18.55
2016-06-03T02:30:01.979Z,18.41
2016-06-03T02:31:01.982Z,18.33
2016-06-03T02:32:01.984Z,18.44
2016-06-03T02:33:01.971Z,18.48
2016-06-03T02:34:02.021Z,18.51
2016-06-03T02:35:01.977Z,18.44
2016-06-03T02:36:01.979Z,18.45
2016-06-03T02:37:02.029Z,18.52
2016-06-03T02:38:01.968Z,18.36
2016-06-03T02:39:02.018Z,18.44
2016-06-03T02:40:02.334Z,18.45
2016-06-03T02:41:01.820Z,18.65
2016-06-03T02:42:01.964Z,18.58
2016-06-03T02:43:01.967Z,18.55
2016-06-03T02:44:01.953Z,18.54
2016-06-03T02:45:01.815Z,18.58
2016-06-03T02:46:01.959Z,18.76
2016-06-03T02:47:01.962Z,18.57
2016-06-03T02:48:01.948Z,18.75
2016-06-03T02:49:01.950Z,18.91
2016-06-03T02:50:01.953Z,18.51
2016-06-03T02:51:01.941Z,18.65
2016-06-03T02:52:01.944Z,19.23
2016-06-03T02:53:01.946Z,19.62
2016-06-03T02:54:01.949Z,19.46
2016-06-03T02:55:01.952Z,19.92
2016-06-03T02:56:01.939Z,19.69
2016-06-03T02:57:01.957Z,19.07
2016-06-03T02:58:01.944Z,18.91
2016-06-03T02:59:01.947Z,18.63
2016-06-03T03:00:01.950Z,18.5
2016-06-03T03:01:01.952Z,18.63
2016-06-03T03:02:01.940Z,18.84
2016-06-03T03:03:01.942Z,19.1
2016-06-03T03:04:01.945Z,18.66
2016-06-03T03:05:01.948Z,19.4
2016-06-03T03:06:01.934Z,19.62
2016-06-03T03:07:01.938Z,19.81
2016-06-03T03:08:01.940Z,19.69
2016-06-03T03:09:01.942Z,19.19
2016-06-03T03:10:01.945Z,19.22
2016-06-03T03:11:02.026Z,18.9
2016-06-03T03:12:01.935Z,19.46
2016-06-03T03:13:01.954Z,19.14
2016-06-03T03:14:01.940Z,19.13
2016-06-03T03:15:01.943Z,18.66
2016-06-03T03:16:01.945Z,18.95
2016-06-03T03:17:01.933Z,18.72
2016-06-03T03:18:01.936Z,18.78
2016-06-03T03:19:01.938Z,19.11
2016-06-03T03:20:01.925Z,19
2016-06-03T03:21:01.927Z,18.69
2016-06-03T03:22:01.931Z,19.02
2016-06-03T03:23:01.918Z,19.1
2016-06-03T03:24:01.920Z,18.62
2016-06-03T03:25:01.923Z,18.82
2016-06-03T03:26:01.926Z,19.22
2016-06-03T03:27:01.928Z,19.16
2016-06-03T03:28:01.930Z,19.54
2016-06-03T03:29:01.933Z,19.39
2016-06-03T03:30:01.921Z,18.75
2016-06-03T03:31:01.923Z,18.75
2016-06-03T03:32:01.911Z,18.81
2016-06-03T03:33:01.913Z,19.14
2016-06-03T03:34:01.916Z,19.28
2016-06-03T03:35:01.809Z,19.31
2016-06-03T03:36:01.922Z,19.32
2016-06-03T03:37:01.908Z,19.22
2016-06-03T03:38:01.911Z,19.51
2016-06-03T03:39:01.960Z,19.62
2016-06-03T03:40:01.932Z,19.76
2016-06-03T03:41:01.920Z,19.65
2016-06-03T03:42:01.922Z,19.74
2016-06-03T03:43:01.909Z,19.83
2016-06-03T03:44:01.911Z,19.66
2016-06-03T03:45:01.931Z,19.78
2016-06-03T03:46:01.761Z,19.71
2016-06-03T03:47:01.920Z,19.58
2016-06-03T03:48:01.922Z,19.74
2016-06-03T03:49:01.769Z,19.62
2016-06-03T03:50:01.928Z,19.48
2016-06-03T03:51:01.931Z,19.65
2016-06-03T03:52:01.934Z,19.54
2016-06-03T03:53:01.920Z,19.16
2016-06-03T03:54:01.939Z,18.99
2016-06-03T03:55:02.332Z,19.23
2016-06-03T03:56:01.772Z,19.73
2016-06-03T03:57:01.930Z,19.73
2016-06-03T03:58:01.762Z,19.86
2016-06-03T03:59:01.921Z,20.06
2016-06-03T04:00:01.924Z,20.1
2016-06-03T04:01:01.927Z,19.99
2016-06-03T04:02:01.773Z,19.95
2016-06-03T04:03:01.947Z,19.73
2016-06-03T04:04:01.934Z,19.8
2016-06-03T04:05:01.921Z,19.51
2016-06-03T04:06:01.924Z,19.22
2016-06-03T04:07:01.926Z,19.71
2016-06-03T04:08:01.930Z,19.71
2016-06-03T04:09:01.932Z,19.69
2016-06-03T04:10:01.981Z,19.55
2016-06-03T04:11:02.437Z,19.55
2016-06-03T04:12:01.924Z,19.48
2016-06-03T04:13:01.927Z,19.19
2016-06-03T04:14:01.930Z,19.39
2016-06-03T04:15:01.932Z,19.63
2016-06-03T04:16:01.934Z,19.81
2016-06-03T04:17:01.937Z,19.8
2016-06-03T04:18:01.940Z,20.23
2016-06-03T04:19:01.787Z,20.47
2016-06-03T04:20:01.946Z,20.39
2016-06-03T04:21:01.933Z,19.8
2016-06-03T04:22:01.967Z,19.66
2016-06-03T04:23:01.939Z,19.84
2016-06-03T04:24:01.942Z,19.99
2016-06-03T04:25:02.647Z,20.02
2016-06-03T04:26:01.947Z,20.05
2016-06-03T04:27:01.933Z,20.1
2016-06-03T04:28:01.936Z,20.2
2016-06-03T04:29:01.955Z,20.35
2016-06-03T04:30:01.942Z,19.92
2016-06-03T04:31:01.944Z,20.01
2016-06-03T04:32:01.978Z,20.1
2016-06-03T04:33:01.950Z,20.14
2016-06-03T04:34:01.953Z,20.16
2016-06-03T04:35:01.955Z,20.02
2016-06-03T04:36:01.958Z,19.96
2016-06-03T04:37:01.945Z,19.62
2016-06-03T04:38:01.948Z,19.86
2016-06-03T04:39:01.950Z,19.92
2016-06-03T04:40:01.954Z,19.86
2016-06-03T04:41:01.956Z,19.87
2016-06-03T04:42:01.943Z,19.95
2016-06-03T04:43:01.961Z,20.06
2016-06-03T04:44:01.948Z,20.02
2016-06-03T04:45:01.951Z,19.65
2016-06-03T04:46:01.953Z,19.56
2016-06-03T04:47:01.801Z,19.78
2016-06-03T04:48:01.975Z,19.61
2016-06-03T04:49:01.945Z,19.21
2016-06-03T04:50:01.964Z,19.46
2016-06-03T04:51:01.951Z,19.65
2016-06-03T04:52:01.970Z,19.98
2016-06-03T04:53:01.956Z,19.65
2016-06-03T04:54:01.959Z,19.5
2016-06-03T04:55:02.447Z,19.16
2016-06-03T04:56:01.965Z,19.13
2016-06-03T04:57:01.967Z,19.33
2016-06-03T04:58:01.955Z,19.65
2016-06-03T04:59:01.958Z,19.44
2016-06-03T05:00:01.944Z,19.91
2016-06-03T05:01:01.993Z,19.86
2016-06-03T05:02:01.981Z,19.95
2016-06-03T05:03:01.796Z,19.88
2016-06-03T05:04:01.799Z,19.74
2016-06-03T05:05:01.957Z,19.59
2016-06-03T05:06:01.960Z,19.11
2016-06-03T05:07:01.963Z,19.68
2016-06-03T05:08:01.966Z,19.29
2016-06-03T05:09:01.984Z,19.88
2016-06-03T05:10:02.643Z,20.14
2016-06-03T05:11:01.974Z,20.23
2016-06-03T05:12:01.805Z,20.05
2016-06-03T05:13:01.963Z,20.05
2016-06-03T05:14:01.966Z,20.48
2016-06-03T05:15:01.813Z,20.54
2016-06-03T05:16:01.971Z,20.36
2016-06-03T05:17:01.958Z,20.43
2016-06-03T05:18:01.961Z,20.2
2016-06-03T05:19:01.964Z,20.51
2016-06-03T05:20:01.967Z,20.24
2016-06-03T05:21:01.969Z,20.32
2016-06-03T05:22:01.972Z,20.01
2016-06-03T05:23:01.819Z,20.11
2016-06-03T05:24:01.978Z,20.28
2016-06-03T05:25:02.386Z,20.32
2016-06-03T05:26:01.827Z,20.03
2016-06-03T05:27:01.970Z,20.08
2016-06-03T05:28:01.989Z,20.03
2016-06-03T05:29:01.975Z,19.84
2016-06-03T05:30:01.978Z,19.84
2016-06-03T05:31:01.981Z,19.94
2016-06-03T05:32:01.984Z,20.05
2016-06-03T05:33:01.985Z,19.96
2016-06-03T05:34:01.988Z,19.91
2016-06-03T05:35:01.976Z,20.33
2016-06-03T05:36:02.041Z,20.18
2016-06-03T05:37:02.059Z,19.94
2016-06-03T05:38:01.984Z,19.84
2016-06-03T05:39:02.049Z,19.88
2016-06-03T05:40:02.646Z,20.24
2016-06-03T05:41:01.835Z,19.88
2016-06-03T05:42:01.995Z,19.78
2016-06-03T05:43:01.998Z,20.13
2016-06-03T05:44:01.985Z,20.06
2016-06-03T05:45:01.987Z,20.03
2016-06-03T05:46:01.990Z,20.33
2016-06-03T05:47:01.993Z,20.36
2016-06-03T05:48:01.996Z,20.39
2016-06-03T05:49:01.982Z,20.55
2016-06-03T05:50:02.001Z,20.48
2016-06-03T05:51:01.988Z,20.28
2016-06-03T05:52:01.990Z,20.17
2016-06-03T05:53:02.008Z,19.86
2016-06-03T05:54:01.995Z,20.18
2016-06-03T05:55:01.873Z,20.03
2016-06-03T05:56:02.063Z,19.96
2016-06-03T05:57:02.003Z,20.14
2016-06-03T05:58:02.006Z,20.14
2016-06-03T05:59:01.994Z,20.06
2016-06-03T06:00:01.996Z,20.14
2016-06-03T06:01:02.014Z,20.36
2016-06-03T06:02:02.002Z,20.38
2016-06-03T06:03:02.005Z,20.14
2016-06-03T06:04:02.007Z,20.48
2016-06-03T06:05:02.025Z,20.5
2016-06-03T06:06:02.013Z,20.62
2016-06-03T06:07:02.000Z,20.17
2016-06-03T06:08:02.018Z,20.16
2016-06-03T06:09:02.005Z,19.98
2016-06-03T06:10:02.023Z,20.35
2016-06-03T06:11:02.745Z,20.05
2016-06-03T06:12:02.012Z,20.03
2016-06-03T06:13:02.015Z,20.05
2016-06-03T06:14:02.002Z,20.16
2016-06-03T06:15:02.005Z,20.26
2016-06-03T06:16:02.023Z,20.16
2016-06-03T06:17:02.010Z,20.33
2016-06-03T06:18:02.013Z,20.28
2016-06-03T06:19:02.016Z,20.32
2016-06-03T06:20:02.034Z,20.54
2016-06-03T06:21:02.021Z,20.28
2016-06-03T06:22:02.024Z,20.26
2016-06-03T06:23:02.027Z,20.08
2016-06-03T06:24:02.014Z,20.21
2016-06-03T06:25:01.954Z,20.39
2016-06-03T06:26:02.176Z,20.26
2016-06-03T06:27:02.023Z,20.42
2016-06-03T06:28:02.024Z,20.41
2016-06-03T06:29:02.027Z,20.02
2016-06-03T06:30:02.030Z,20.21
2016-06-03T06:31:02.017Z,20.11
2016-06-03T06:32:02.066Z,20.31
2016-06-03T06:33:02.038Z,20.06
2016-06-03T06:34:02.025Z,20.1
2016-06-03T06:35:02.013Z,20.21
2016-06-03T06:36:02.077Z,20.17
2016-06-03T06:37:02.033Z,20.01
2016-06-03T06:38:02.036Z,20.26
2016-06-03T06:39:02.179Z,20.18
2016-06-03T06:40:02.667Z,20.23
2016-06-03T06:41:02.544Z,20.08
2016-06-03T06:42:02.031Z,19.83
2016-06-03T06:43:02.034Z,20.08
2016-06-03T06:44:02.037Z,20.1
2016-06-03T06:45:01.882Z,19.92
2016-06-03T06:46:02.042Z,20.01
2016-06-03T06:47:02.069Z,19.96
2016-06-03T06:48:02.099Z,20.02
2016-06-03T06:49:02.113Z,20.13
2016-06-03T06:50:02.159Z,20.21
2016-06-03T06:51:02.017Z,20.41
2016-06-03T06:52:02.188Z,20.51
2016-06-03T06:53:02.200Z,20.59
2016-06-03T06:54:02.212Z,20.33
2016-06-03T06:55:03.117Z,20.28
2016-06-03T06:56:02.083Z,20.21
2016-06-03T06:57:02.229Z,19.91
2016-06-03T06:58:02.235Z,19.86
2016-06-03T06:59:02.241Z,20.06
2016-06-03T07:00:02.248Z,20.38
2016-06-03T07:01:02.254Z,20.55
2016-06-03T07:02:02.243Z,20.39
2016-06-03T07:03:02.262Z,19.91
2016-06-03T07:04:02.265Z,20.05
2016-06-03T07:05:02.269Z,20.31
2016-06-03T07:06:02.273Z,20.18
2016-06-03T07:07:02.276Z,20.33
2016-06-03T07:08:02.265Z,20.57
2016-06-03T07:09:02.269Z,20.52
2016-06-03T07:10:02.850Z,20.62
2016-06-03T07:11:02.588Z,20.48
2016-06-03T07:12:02.262Z,20.55
2016-06-03T07:13:02.265Z,20.69
2016-06-03T07:14:02.268Z,20.42
2016-06-03T07:15:02.270Z,20.61
2016-06-03T07:16:02.273Z,20.55
2016-06-03T07:17:02.275Z,20.31
2016-06-03T07:18:02.278Z,20.41
2016-06-03T07:19:02.265Z,20.66
2016-06-03T07:20:02.283Z,20.77
2016-06-03T07:21:02.270Z,20.74
2016-06-03T07:22:02.289Z,20.64
2016-06-03T07:23:02.276Z,20.66
2016-06-03T07:24:02.278Z,20.29
2016-06-03T07:25:02.361Z,20.41
2016-06-03T07:26:02.159Z,20.66
2016-06-03T07:27:02.131Z,20.64
2016-06-03T07:28:02.289Z,20.31
2016-06-03T07:29:02.277Z,19.98
2016-06-03T07:30:02.280Z,20.38
2016-06-03T07:31:02.298Z,20.36
2016-06-03T07:32:02.285Z,20.57
2016-06-03T07:33:02.288Z,20.52
2016-06-03T07:34:02.290Z,20.36
2016-06-03T07:35:02.152Z,20.67
2016-06-03T07:36:02.296Z,20.57
2016-06-03T07:37:02.299Z,20.26
2016-06-03T07:38:02.348Z,20.23
2016-06-03T07:39:02.491Z,20.1
2016-06-03T07:40:03.541Z,20.2
2016-06-03T07:41:02.154Z,20.05
2016-06-03T07:42:02.296Z,20.51
2016-06-03T07:43:02.298Z,20.82
2016-06-03T07:44:02.317Z,20.84
2016-06-03T07:45:02.304Z,20.57
2016-06-03T07:46:02.307Z,20.54
2016-06-03T07:47:02.309Z,20.48
2016-06-03T07:48:02.312Z,20.67
2016-06-03T07:49:02.315Z,20.51
2016-06-03T07:50:02.302Z,20.48
2016-06-03T07:51:02.305Z,20.7
2016-06-03T07:52:02.308Z,20.66
2016-06-03T07:53:02.310Z,20.69
2016-06-03T07:54:02.156Z,20.88
2016-06-03T07:55:02.644Z,20.95
2016-06-03T07:56:02.803Z,20.77
2016-06-03T07:57:02.321Z,21.01
2016-06-03T07:58:02.324Z,20.92
2016-06-03T07:59:02.310Z,20.92
2016-06-03T08:00:02.329Z,21.09
2016-06-03T08:01:02.316Z,20.97
2016-06-03T08:02:02.334Z,21.09
2016-06-03T08:03:02.338Z,21.06
2016-06-03T08:04:02.340Z,21.37
2016-06-03T08:05:02.343Z,21.5
2016-06-03T08:06:02.329Z,21.25
2016-06-03T08:07:02.363Z,21.19
2016-06-03T08:08:02.335Z,21.03
2016-06-03T08:09:02.353Z,20.94
2016-06-03T08:10:04.121Z,21.1
2016-06-03T08:11:02.405Z,21.32
2016-06-03T08:12:02.362Z,21.35
2016-06-03T08:13:02.364Z,20.88
2016-06-03T08:14:02.351Z,20.73
2016-06-03T08:15:02.354Z,20.66
2016-06-03T08:16:02.372Z,20.64
2016-06-03T08:17:02.359Z,20.67
2016-06-03T08:18:02.378Z,20.94
2016-06-03T08:19:02.364Z,21.01
2016-06-03T08:20:02.367Z,20.62
2016-06-03T08:21:02.370Z,20.64
2016-06-03T08:22:02.372Z,20.85
2016-06-03T08:23:02.406Z,20.94
2016-06-03T08:24:02.378Z,20.77
2016-06-03T08:25:02.365Z,20.89
2016-06-03T08:26:02.399Z,20.91
2016-06-03T08:27:02.386Z,21.19
2016-06-03T08:28:02.389Z,21.12
2016-06-03T08:29:02.375Z,21.13
2016-06-03T08:30:02.394Z,21.06
2016-06-03T08:31:02.397Z,21.31
2016-06-03T08:32:02.399Z,21.28
2016-06-03T08:33:02.402Z,21.09
2016-06-03T08:34:02.404Z,20.98
2016-06-03T08:35:02.408Z,21.22
2016-06-03T08:36:02.410Z,21.35
2016-06-03T08:37:02.397Z,21.25
2016-06-03T08:38:02.416Z,21.65
2016-06-03T08:39:02.449Z,21.79
2016-06-03T08:40:02.702Z,21.91
2016-06-03T08:41:02.423Z,22.03
2016-06-03T08:42:02.442Z,22
2016-06-03T08:43:02.429Z,22.06
2016-06-03T08:44:02.431Z,22.02
2016-06-03T08:45:02.435Z,21.94
2016-06-03T08:46:02.437Z,21.9
2016-06-03T08:47:02.439Z,22.06
2016-06-03T08:48:02.443Z,21.92
2016-06-03T08:49:02.461Z,21.86
2016-06-03T08:50:02.448Z,21.84
2016-06-03T08:51:02.451Z,21.75
2016-06-03T08:52:02.453Z,21.74
2016-06-03T08:53:02.455Z,21.64
2016-06-03T08:54:02.459Z,21.83
2016-06-03T08:55:02.930Z,21.91
2016-06-03T08:56:02.651Z,21.99
2016-06-03T08:57:02.483Z,21.83
2016-06-03T08:58:02.485Z,21.68
2016-06-03T08:59:02.472Z,21.62
2016-06-03T09:00:02.475Z,21.65
2016-06-03T09:01:03.196Z,21.62
2016-06-03T09:02:02.480Z,21.52
2016-06-03T09:03:02.483Z,21.77
2016-06-03T09:04:02.502Z,21.84
2016-06-03T09:05:02.505Z,21.74
2016-06-03T09:06:02.522Z,21.62
2016-06-03T09:07:02.335Z,21.47
2016-06-03T09:08:02.509Z,21.69
2016-06-03T09:09:02.512Z,21.75
2016-06-03T09:10:03.783Z,21.75
2016-06-03T09:11:02.361Z,21.69
2016-06-03T09:12:02.520Z,21.8
2016-06-03T09:13:02.523Z,21.9
2016-06-03T09:14:02.526Z,22.14
2016-06-03T09:15:02.529Z,21.94
2016-06-03T09:16:02.924Z,21.98
2016-06-03T09:17:02.534Z,21.96
2016-06-03T09:18:02.537Z,21.92
2016-06-03T09:19:02.540Z,22.03
2016-06-03T09:20:02.542Z,21.77
2016-06-03T09:21:02.560Z,21.92
2016-06-03T09:22:02.547Z,21.9
2016-06-03T09:23:02.550Z,21.94
2016-06-03T09:24:02.568Z,22.05
2016-06-03T09:25:02.587Z,21.9
2016-06-03T09:26:02.573Z,22.06
2016-06-03T09:27:02.560Z,22.05
2016-06-03T09:28:02.564Z,22.05
2016-06-03T09:29:02.581Z,22.07
2016-06-03T09:30:02.568Z,21.92
2016-06-03T09:31:02.572Z,22.02
2016-06-03T09:32:02.574Z,22.14
2016-06-03T09:33:02.591Z,22.22
2016-06-03T09:34:02.594Z,22.14
2016-06-03T09:35:02.442Z,22.15
2016-06-03T09:36:02.600Z,22.27
2016-06-03T09:37:02.603Z,22.12
2016-06-03T09:38:02.465Z,21.99
2016-06-03T09:39:02.468Z,22.02
2016-06-03T09:40:02.611Z,22.06
2016-06-03T09:41:02.691Z,22.2
2016-06-03T09:42:02.616Z,22.2
2016-06-03T09:43:02.479Z,22.09
2016-06-03T09:44:02.622Z,22.15
2016-06-03T09:45:02.641Z,21.99
2016-06-03T09:46:02.627Z,22.07
2016-06-03T09:47:02.629Z,22.03
2016-06-03T09:48:02.649Z,22.02
2016-06-03T09:49:02.634Z,21.92
2016-06-03T09:50:02.654Z,22.14
2016-06-03T09:51:02.640Z,22.27
2016-06-03T09:52:02.659Z,22.39
2016-06-03T09:53:02.662Z,22.33
2016-06-03T09:54:02.664Z,22.4
2016-06-03T09:55:03.448Z,22.2
2016-06-03T09:56:02.514Z,22.22
2016-06-03T09:57:02.672Z,22.35
2016-06-03T09:58:02.690Z,22.24
2016-06-03T09:59:02.536Z,22.42
2016-06-03T10:00:02.695Z,22.36
2016-06-03T10:01:02.699Z,22.31
2016-06-03T10:02:02.701Z,22.24
2016-06-03T10:03:02.689Z,22.3
2016-06-03T10:04:02.706Z,22.42
2016-06-03T10:05:02.709Z,22.42
2016-06-03T10:06:02.711Z,22.43
2016-06-03T10:07:02.715Z,22.37
2016-06-03T10:08:02.717Z,22.18
2016-06-03T10:09:02.719Z,22.03
2016-06-03T10:10:02.755Z,21.98
2016-06-03T10:11:02.725Z,21.9
2016-06-03T10:12:02.728Z,21.74
2016-06-03T10:13:02.731Z,21.88
2016-06-03T10:14:02.733Z,21.94
2016-06-03T10:15:02.580Z,22.03
2016-06-03T10:16:02.738Z,22.17
2016-06-03T10:17:02.741Z,22.22
2016-06-03T10:18:02.744Z,22.18
2016-06-03T10:19:02.747Z,22.25
2016-06-03T10:20:02.749Z,22.2
2016-06-03T10:21:02.768Z,22.18
2016-06-03T10:22:02.599Z,22.17
2016-06-03T10:23:02.773Z,22.25
2016-06-03T10:24:02.760Z,22.4
2016-06-03T10:25:02.762Z,22.47
2016-06-03T10:26:02.640Z,22.47
2016-06-03T10:27:02.785Z,22.45
2016-06-03T10:28:02.818Z,22.39
2016-06-03T10:29:02.790Z,22.37
2016-06-03T10:30:02.792Z,22.4
2016-06-03T10:31:02.795Z,22.31
2016-06-03T10:32:02.782Z,22.43
2016-06-03T10:33:02.800Z,22.42
2016-06-03T10:34:02.803Z,22.52
2016-06-03T10:35:02.805Z,22.42
2016-06-03T10:36:02.808Z,22.52
2016-06-03T10:37:02.811Z,22.54
2016-06-03T10:38:02.813Z,22.6
2016-06-03T10:39:02.817Z,22.72
2016-06-03T10:40:02.678Z,22.79
2016-06-03T10:41:03.197Z,22.77
2016-06-03T10:42:02.824Z,22.76
2016-06-03T10:43:02.843Z,22.45
2016-06-03T10:44:02.846Z,22.37
2016-06-03T10:45:02.848Z,22.4
2016-06-03T10:46:02.913Z,22.51
2016-06-03T10:47:02.854Z,22.58
2016-06-03T10:48:02.857Z,22.72
2016-06-03T10:49:02.874Z,22.65
2016-06-03T10:50:02.877Z,22.65
2016-06-03T10:51:02.880Z,22.72
2016-06-03T10:52:02.883Z,22.62
2016-06-03T10:53:02.885Z,22.54
2016-06-03T10:54:02.887Z,22.6
2016-06-03T10:55:02.766Z,22.67
2016-06-03T10:56:02.909Z,22.6
2016-06-03T10:57:02.740Z,22.64
2016-06-03T10:58:02.915Z,22.58
2016-06-03T10:59:02.917Z,22.68
2016-06-03T11:00:02.920Z,22.64
2016-06-03T11:01:02.922Z,22.6
2016-06-03T11:02:02.925Z,22.65
2016-06-03T11:03:02.928Z,22.62
2016-06-03T11:04:02.931Z,22.46
2016-06-03T11:05:02.933Z,22.51
2016-06-03T11:06:02.936Z,22.47
2016-06-03T11:07:02.938Z,22.57
2016-06-03T11:08:02.957Z,22.61
2016-06-03T11:09:02.960Z,22.61
2016-06-03T11:10:03.088Z,22.6
2016-06-03T11:11:04.074Z,22.64
2016-06-03T11:12:02.968Z,22.8
2016-06-03T11:13:02.971Z,22.83
2016-06-03T11:14:02.973Z,22.67
2016-06-03T11:15:02.976Z,22.61
2016-06-03T11:16:02.978Z,22.61
2016-06-03T11:17:02.981Z,22.6
2016-06-03T11:18:02.827Z,22.54
2016-06-03T11:19:03.002Z,22.47
2016-06-03T11:20:02.990Z,22.37
2016-06-03T11:21:03.007Z,22.42
2016-06-03T11:22:02.995Z,22.52
2016-06-03T11:23:02.998Z,22.57
2016-06-03T11:24:03.015Z,22.58
2016-06-03T11:25:03.378Z,22.54
2016-06-03T11:26:03.536Z,22.54
2016-06-03T11:27:03.024Z,22.64
2016-06-03T11:28:03.043Z,22.64
2016-06-03T11:29:03.029Z,22.61
2016-06-03T11:30:03.032Z,22.57
2016-06-03T11:31:03.034Z,22.55
2016-06-03T11:32:03.037Z,22.77
2016-06-03T11:33:03.055Z,22.86
2016-06-03T11:34:03.042Z,22.88
2016-06-03T11:35:03.061Z,22.8
2016-06-03T11:36:03.064Z,22.76
2016-06-03T11:37:03.067Z,22.86
2016-06-03T11:38:03.069Z,22.9
2016-06-03T11:39:03.087Z,22.8
2016-06-03T11:40:03.169Z,22.82
2016-06-03T11:41:03.483Z,22.92
2016-06-03T11:42:03.080Z,22.98
2016-06-03T11:43:03.098Z,23.04
2016-06-03T11:44:03.100Z,23.05
2016-06-03T11:45:03.103Z,22.98
2016-06-03T11:46:03.121Z,22.97
2016-06-03T11:47:03.108Z,22.92
2016-06-03T11:48:03.111Z,22.92
2016-06-03T11:49:03.130Z,22.83
2016-06-03T11:50:03.164Z,23
2016-06-03T11:51:03.135Z,23.04
2016-06-03T11:52:03.138Z,23
2016-06-03T11:53:03.140Z,23.07
2016-06-03T11:54:03.143Z,23.01
2016-06-03T11:55:03.708Z,22.97
2016-06-03T11:56:03.695Z,23
2016-06-03T11:57:03.167Z,22.94
2016-06-03T11:58:03.170Z,22.9
2016-06-03T11:59:03.173Z,23
2016-06-03T12:00:03.175Z,23.05
2016-06-03T12:01:03.178Z,23
2016-06-03T12:02:03.181Z,23.05
2016-06-03T12:03:03.198Z,22.92
2016-06-03T12:04:03.201Z,23.02
2016-06-03T12:05:03.188Z,22.8
2016-06-03T12:06:03.207Z,22.85
2016-06-03T12:07:03.209Z,22.9
2016-06-03T12:08:03.211Z,22.97
2016-06-03T12:09:03.214Z,23.04
2016-06-03T12:10:03.280Z,23.16
2016-06-03T12:11:03.235Z,23.17
2016-06-03T12:12:03.270Z,23.15
2016-06-03T12:13:03.241Z,23.2
2016-06-03T12:14:03.244Z,23.23
2016-06-03T12:15:03.247Z,23.04
2016-06-03T12:16:03.249Z,23.16
2016-06-03T12:17:03.252Z,23.15
2016-06-03T12:18:03.254Z,23.05
2016-06-03T12:19:03.274Z,22.91
2016-06-03T12:20:03.260Z,23.02
2016-06-03T12:21:03.279Z,23.16
2016-06-03T12:22:03.281Z,23.15
2016-06-03T12:23:03.299Z,23.27
2016-06-03T12:24:03.287Z,23.17
2016-06-03T12:25:03.321Z,23.16
2016-06-03T12:26:03.307Z,23.16
2016-06-03T12:27:03.295Z,23
2016-06-03T12:28:03.312Z,23.13
2016-06-03T12:29:03.315Z,23.23
2016-06-03T12:30:03.162Z,23.12
2016-06-03T12:31:03.181Z,23.17
2016-06-03T12:32:03.339Z,23.15
2016-06-03T12:33:03.342Z,23.02
2016-06-03T12:34:03.329Z,23.17
2016-06-03T12:35:03.348Z,23.2
2016-06-03T12:36:03.350Z,23.19
2016-06-03T12:37:03.197Z,23.19
2016-06-03T12:38:03.355Z,23.15
2016-06-03T12:39:03.358Z,23.2
2016-06-03T12:40:03.392Z,23.19
2016-06-03T12:41:04.613Z,23.17
2016-06-03T12:42:03.225Z,23.16
2016-06-03T12:43:03.384Z,23.17
2016-06-03T12:44:03.387Z,23.19
2016-06-03T12:45:03.389Z,23.17
2016-06-03T12:46:03.392Z,23.31
2016-06-03T12:47:03.411Z,23.35
2016-06-03T12:48:03.429Z,23.32
2016-06-03T12:49:03.416Z,23.2
2016-06-03T12:50:03.419Z,23.35
2016-06-03T12:51:03.437Z,23.32
2016-06-03T12:52:03.440Z,23.33
2016-06-03T12:53:03.443Z,23.38
2016-06-03T12:54:03.288Z,23.32
2016-06-03T12:55:03.151Z,23.35